METAR Data
IDs: Format: Raw Decoded Include TAF

Data at: 2041 UTC 17 Nov 2019

PTTP 172021Z 16003KT 15SM SCT018 BKN300 26/24 A2985